SWA470 KVPS-KHOU
Flight info
| Callsign | SWA470 |
|---|---|
| Flight time | 1h 25m |
| Altitude | 38000 |
| Route | CEW HRV KCEEE BAYYY5 |
| Aircraft | B737/M-SDE2E3FGHIRWXY/LB1 |
Departure
| Time | 2026-04-23 21:56 |
|---|---|
| Airport | Destin-Fort Walton Beach Airport (KVPS) |
Arrival
| Time | 2026-04-23 23:22 |
|---|---|
| Airport | William P. Hobby Airport (KHOU) |
| Time | Latitude | Longitude | Altitude | Speed | Heading |
|---|---|---|---|---|---|
| 2026-04-23 21:35 | 30.49509 | -86.54902 | 94 ft | 0 kts | 271° |
| 2026-04-23 21:48 | 30.49508 | -86.54878 | 93 ft | 3 kts | 285° |
| 2026-04-23 21:48 | 30.49500 | -86.54854 | 93 ft | 3 kts | 299° |
| 2026-04-23 21:48 | 30.49490 | -86.54836 | 94 ft | 2 kts | 302° |
| 2026-04-23 21:49 | 30.49479 | -86.54820 | 96 ft | 3 kts | 358° |
| 2026-04-23 21:49 | 30.49464 | -86.54828 | 95 ft | 3 kts | 29° |
| 2026-04-23 21:49 | 30.49444 | -86.54834 | 94 ft | 3 kts | 0° |
| 2026-04-23 21:49 | 30.49421 | -86.54835 | 95 ft | 3 kts | 3° |
| 2026-04-23 21:50 | 30.49405 | -86.54836 | 94 ft | 1 kts | 2° |
| 2026-04-23 21:50 | 30.49403 | -86.54836 | 94 ft | 0 kts | 2° |
| 2026-04-23 21:53 | 30.49404 | -86.54837 | 94 ft | 0 kts | 351° |
| 2026-04-23 21:53 | 30.49405 | -86.54842 | 93 ft | 1 kts | 294° |
| 2026-04-23 21:53 | 30.49401 | -86.54846 | 93 ft | 1 kts | 223° |
| 2026-04-23 21:53 | 30.49391 | -86.54844 | 94 ft | 3 kts | 176° |
| 2026-04-23 21:54 | 30.49331 | -86.54847 | 96 ft | 15 kts | 186° |
| 2026-04-23 21:54 | 30.49193 | -86.54862 | 97 ft | 24 kts | 201° |
| 2026-04-23 21:54 | 30.49048 | -86.54950 | 100 ft | 23 kts | 218° |
| 2026-04-23 21:54 | 30.49015 | -86.55102 | 101 ft | 13 kts | 225° |
| 2026-04-23 21:55 | 30.48950 | -86.55156 | 102 ft | 11 kts | 214° |
| 2026-04-23 21:55 | 30.48881 | -86.55187 | 100 ft | 10 kts | 181° |
| 2026-04-23 21:55 | 30.48832 | -86.55128 | 101 ft | 12 kts | 116° |
| 2026-04-23 21:55 | 30.48675 | -86.54812 | 104 ft | 82 kts | 120° |
| 2026-04-23 21:56 | 30.48275 | -86.54013 | 103 ft | 143 kts | 121° |
| 2026-04-23 21:56 | 30.47734 | -86.52939 | 494 ft | 160 kts | 121° |
| 2026-04-23 21:56 | 30.47156 | -86.51750 | 986 ft | 182 kts | 122° |
| 2026-04-23 21:56 | 30.46467 | -86.50416 | 1485 ft | 197 kts | 122° |
| 2026-04-23 21:57 | 30.45960 | -86.48927 | 2127 ft | 210 kts | 98° |
| 2026-04-23 21:57 | 30.46230 | -86.47150 | 2399 ft | 244 kts | 66° |
| 2026-04-23 21:57 | 30.47408 | -86.45602 | 2984 ft | 267 kts | 35° |
| 2026-04-23 21:57 | 30.49069 | -86.44589 | 3904 ft | 272 kts | 27° |
| 2026-04-23 21:58 | 30.50799 | -86.43668 | 4850 ft | 276 kts | 26° |
| 2026-04-23 21:58 | 30.52583 | -86.42914 | 5773 ft | 281 kts | 10° |
| 2026-04-23 21:58 | 30.54534 | -86.43058 | 6764 ft | 285 kts | 344° |
| 2026-04-23 21:58 | 30.56314 | -86.44079 | 7759 ft | 288 kts | 325° |
| 2026-04-23 21:59 | 30.57931 | -86.45478 | 8778 ft | 292 kts | 322° |
| 2026-04-23 21:59 | 30.59536 | -86.46960 | 9713 ft | 297 kts | 321° |
| 2026-04-23 21:59 | 30.61155 | -86.48465 | 10646 ft | 305 kts | 321° |
| 2026-04-23 22:00 | 30.64752 | -86.51769 | 11631 ft | 345 kts | 321° |
| 2026-04-23 22:00 | 30.66650 | -86.53493 | 12606 ft | 347 kts | 321° |
| 2026-04-23 22:00 | 30.68555 | -86.55216 | 13643 ft | 347 kts | 321° |
| 2026-04-23 22:00 | 30.70474 | -86.56948 | 14620 ft | 350 kts | 321° |
| 2026-04-23 22:01 | 30.72407 | -86.58692 | 15568 ft | 354 kts | 321° |
| 2026-04-23 22:01 | 30.74368 | -86.60461 | 16466 ft | 359 kts | 321° |
| 2026-04-23 22:01 | 30.76356 | -86.62255 | 17330 ft | 364 kts | 321° |
| 2026-04-23 22:01 | 30.78366 | -86.64072 | 18176 ft | 368 kts | 320° |
| 2026-04-23 22:02 | 30.80126 | -86.66232 | 18964 ft | 372 kts | 301° |
| 2026-04-23 22:02 | 30.81127 | -86.69002 | 19751 ft | 375 kts | 282° |
| 2026-04-23 22:02 | 30.81334 | -86.71996 | 20485 ft | 381 kts | 265° |
| 2026-04-23 22:02 | 30.80757 | -86.75025 | 21210 ft | 387 kts | 254° |
| 2026-04-23 22:03 | 30.79945 | -86.78031 | 21921 ft | 391 kts | 252° |
| 2026-04-23 22:03 | 30.79070 | -86.81055 | 22577 ft | 396 kts | 252° |
| 2026-04-23 22:03 | 30.78174 | -86.84103 | 23223 ft | 401 kts | 252° |
| 2026-04-23 22:03 | 30.77272 | -86.87187 | 23847 ft | 405 kts | 252° |
| 2026-04-23 22:04 | 30.76366 | -86.90318 | 24457 ft | 409 kts | 252° |
| 2026-04-23 22:04 | 30.75463 | -86.93476 | 25001 ft | 414 kts | 252° |
| 2026-04-23 22:04 | 30.74556 | -86.96675 | 25578 ft | 418 kts | 252° |
| 2026-04-23 22:04 | 30.73647 | -86.99896 | 26137 ft | 422 kts | 252° |
| 2026-04-23 22:05 | 30.72730 | -87.03152 | 26665 ft | 426 kts | 252° |
| 2026-04-23 22:05 | 30.71805 | -87.06438 | 27170 ft | 430 kts | 252° |
| 2026-04-23 22:05 | 30.70871 | -87.09756 | 27662 ft | 434 kts | 252° |
| 2026-04-23 22:05 | 30.69928 | -87.13100 | 28138 ft | 437 kts | 252° |
| 2026-04-23 22:06 | 30.68977 | -87.16472 | 28586 ft | 441 kts | 252° |
| 2026-04-23 22:06 | 30.68015 | -87.19872 | 29035 ft | 444 kts | 252° |
| 2026-04-23 22:06 | 30.67061 | -87.23245 | 29472 ft | 447 kts | 252° |
| 2026-04-23 22:06 | 30.66081 | -87.26702 | 29879 ft | 451 kts | 252° |
| 2026-04-23 22:07 | 30.65095 | -87.30178 | 30285 ft | 454 kts | 252° |
| 2026-04-23 22:07 | 30.64104 | -87.33669 | 30679 ft | 457 kts | 252° |
| 2026-04-23 22:07 | 30.63101 | -87.37198 | 31064 ft | 460 kts | 252° |
| 2026-04-23 22:07 | 30.62093 | -87.40738 | 31403 ft | 463 kts | 252° |
| 2026-04-23 22:08 | 30.61079 | -87.44295 | 31754 ft | 465 kts | 252° |
| 2026-04-23 22:08 | 30.60061 | -87.47857 | 32176 ft | 465 kts | 252° |
| 2026-04-23 22:08 | 30.59044 | -87.51417 | 32665 ft | 464 kts | 252° |
| 2026-04-23 22:08 | 30.58028 | -87.54966 | 33148 ft | 462 kts | 252° |
| 2026-04-23 22:09 | 30.57016 | -87.58501 | 33551 ft | 462 kts | 252° |
| 2026-04-23 22:09 | 30.56001 | -87.62042 | 33910 ft | 462 kts | 252° |
| 2026-04-23 22:09 | 30.54983 | -87.65592 | 34281 ft | 462 kts | 252° |
| 2026-04-23 22:09 | 30.53969 | -87.69121 | 34698 ft | 461 kts | 252° |
| 2026-04-23 22:10 | 30.52956 | -87.72639 | 35128 ft | 458 kts | 252° |
| 2026-04-23 22:10 | 30.51947 | -87.76143 | 35505 ft | 458 kts | 252° |
| 2026-04-23 22:10 | 30.50952 | -87.79593 | 35823 ft | 458 kts | 252° |
| 2026-04-23 22:10 | 30.49942 | -87.83091 | 36166 ft | 457 kts | 252° |
| 2026-04-23 22:11 | 30.48935 | -87.86575 | 36514 ft | 455 kts | 252° |
| 2026-04-23 22:11 | 30.47928 | -87.90055 | 36838 ft | 455 kts | 252° |
| 2026-04-23 22:11 | 30.46923 | -87.93522 | 37238 ft | 451 kts | 252° |
| 2026-04-23 22:11 | 30.45926 | -87.96959 | 37686 ft | 447 kts | 252° |
| 2026-04-23 22:12 | 30.44940 | -88.00359 | 38092 ft | 443 kts | 252° |
| 2026-04-23 22:12 | 30.43958 | -88.03736 | 38389 ft | 442 kts | 252° |
| 2026-04-23 22:12 | 30.42975 | -88.07118 | 38595 ft | 443 kts | 252° |
| 2026-04-23 22:12 | 30.41989 | -88.10503 | 38802 ft | 443 kts | 252° |
| 2026-04-23 22:13 | 30.41003 | -88.13885 | 39032 ft | 443 kts | 252° |
| 2026-04-23 22:13 | 30.40016 | -88.17266 | 39292 ft | 442 kts | 252° |
| 2026-04-23 22:13 | 30.39030 | -88.20640 | 39577 ft | 441 kts | 252° |
| 2026-04-23 22:13 | 30.38046 | -88.24006 | 39849 ft | 439 kts | 252° |
| 2026-04-23 22:14 | 30.37064 | -88.27357 | 40045 ft | 439 kts | 253° |
| 2026-04-23 22:14 | 30.36090 | -88.30682 | 40031 ft | 443 kts | 253° |
| 2026-04-23 22:14 | 30.34107 | -88.37439 | 40042 ft | 441 kts | 253° |
| 2026-04-23 22:15 | 30.32143 | -88.44111 | 40035 ft | 435 kts | 253° |
| 2026-04-23 22:15 | 30.30190 | -88.50736 | 40041 ft | 433 kts | 253° |
| 2026-04-23 22:16 | 30.28248 | -88.57309 | 40049 ft | 431 kts | 253° |
| 2026-04-23 22:16 | 30.26318 | -88.63830 | 40052 ft | 430 kts | 253° |
| 2026-04-23 22:17 | 30.24374 | -88.70382 | 40047 ft | 431 kts | 252° |
| 2026-04-23 22:17 | 30.22419 | -88.76960 | 40037 ft | 433 kts | 252° |
| 2026-04-23 22:18 | 30.20452 | -88.83563 | 40032 ft | 435 kts | 252° |
| 2026-04-23 22:18 | 30.18475 | -88.90184 | 40031 ft | 436 kts | 252° |
| 2026-04-23 22:19 | 30.16487 | -88.96829 | 40026 ft | 438 kts | 252° |
| 2026-04-23 22:19 | 30.14492 | -89.03483 | 40021 ft | 438 kts | 252° |
| 2026-04-23 22:20 | 30.12506 | -89.10096 | 40021 ft | 439 kts | 252° |
| 2026-04-23 22:20 | 30.10504 | -89.16745 | 40028 ft | 438 kts | 252° |
| 2026-04-23 22:21 | 30.08497 | -89.23399 | 40028 ft | 437 kts | 252° |
| 2026-04-23 22:21 | 30.06495 | -89.30022 | 40027 ft | 437 kts | 252° |
| 2026-04-23 22:22 | 30.04491 | -89.36636 | 40024 ft | 436 kts | 252° |
| 2026-04-23 22:22 | 30.02487 | -89.43239 | 40029 ft | 435 kts | 252° |
| 2026-04-23 22:23 | 30.00484 | -89.49825 | 40025 ft | 434 kts | 252° |
| 2026-04-23 22:23 | 29.98822 | -89.55280 | 40021 ft | 434 kts | 252° |
| 2026-04-23 22:24 | 29.96495 | -89.62901 | 40019 ft | 433 kts | 252° |
| 2026-04-23 22:24 | 29.94815 | -89.68392 | 40012 ft | 433 kts | 252° |
| 2026-04-23 22:25 | 29.92812 | -89.74928 | 40008 ft | 433 kts | 252° |
| 2026-04-23 22:25 | 29.90818 | -89.81423 | 40009 ft | 433 kts | 252° |
| 2026-04-23 22:26 | 29.88806 | -89.87962 | 40010 ft | 433 kts | 252° |
| 2026-04-23 22:26 | 29.86790 | -89.94504 | 40001 ft | 434 kts | 252° |
| 2026-04-23 22:27 | 29.84791 | -90.01058 | 39999 ft | 433 kts | 255° |
| 2026-04-23 22:27 | 29.83144 | -90.07738 | 40005 ft | 433 kts | 257° |
| 2026-04-23 22:28 | 29.81606 | -90.14451 | 39999 ft | 434 kts | 257° |
| 2026-04-23 22:28 | 29.80048 | -90.21169 | 40000 ft | 434 kts | 257° |
| 2026-04-23 22:29 | 29.78465 | -90.27878 | 39999 ft | 434 kts | 257° |
| 2026-04-23 22:29 | 29.76879 | -90.34536 | 40003 ft | 434 kts | 257° |
| 2026-04-23 22:30 | 29.75278 | -90.41230 | 39997 ft | 433 kts | 257° |
| 2026-04-23 22:30 | 29.73679 | -90.47904 | 40000 ft | 432 kts | 257° |
| 2026-04-23 22:31 | 29.72078 | -90.54575 | 40002 ft | 432 kts | 257° |
| 2026-04-23 22:31 | 29.70477 | -90.61227 | 40009 ft | 431 kts | 257° |
| 2026-04-23 22:32 | 29.68877 | -90.67860 | 40010 ft | 430 kts | 257° |
| 2026-04-23 22:32 | 29.67278 | -90.74471 | 40008 ft | 429 kts | 257° |
| 2026-04-23 22:33 | 29.65679 | -90.81071 | 40010 ft | 428 kts | 257° |
| 2026-04-23 22:33 | 29.64079 | -90.87658 | 40010 ft | 427 kts | 257° |
| 2026-04-23 22:34 | 29.62489 | -90.94185 | 40001 ft | 427 kts | 257° |
| 2026-04-23 22:34 | 29.60887 | -91.00752 | 39999 ft | 426 kts | 257° |
| 2026-04-23 22:35 | 29.59281 | -91.07316 | 39999 ft | 426 kts | 257° |
| 2026-04-23 22:35 | 29.57674 | -91.13866 | 39994 ft | 425 kts | 257° |
| 2026-04-23 22:36 | 29.56066 | -91.20405 | 39990 ft | 425 kts | 257° |
| 2026-04-23 22:36 | 29.54455 | -91.26945 | 39991 ft | 425 kts | 257° |
| 2026-04-23 22:37 | 29.52845 | -91.33468 | 39989 ft | 424 kts | 257° |
| 2026-04-23 22:37 | 29.51241 | -91.39951 | 39991 ft | 424 kts | 257° |
| 2026-04-23 22:38 | 29.49626 | -91.46467 | 39991 ft | 424 kts | 257° |
| 2026-04-23 22:38 | 29.48007 | -91.52976 | 39989 ft | 424 kts | 258° |
| 2026-04-23 22:39 | 29.46385 | -91.59484 | 39988 ft | 424 kts | 257° |
| 2026-04-23 22:39 | 29.44761 | -91.65984 | 39981 ft | 423 kts | 258° |
| 2026-04-23 22:40 | 29.43137 | -91.72480 | 39983 ft | 423 kts | 257° |
| 2026-04-23 22:41 | 29.40694 | -91.82207 | 39984 ft | 423 kts | 257° |
| 2026-04-23 22:41 | 29.39074 | -91.88643 | 39982 ft | 423 kts | 257° |
| 2026-04-23 22:42 | 29.37440 | -91.95122 | 39966 ft | 423 kts | 257° |
| 2026-04-23 22:42 | 29.35802 | -92.01600 | 39964 ft | 423 kts | 257° |
| 2026-04-23 22:43 | 29.34163 | -92.08069 | 39968 ft | 423 kts | 258° |
| 2026-04-23 22:43 | 29.32520 | -92.14538 | 39964 ft | 422 kts | 258° |
| 2026-04-23 22:44 | 29.30876 | -92.20995 | 39966 ft | 421 kts | 258° |
| 2026-04-23 22:44 | 29.29236 | -92.27427 | 39962 ft | 420 kts | 258° |
| 2026-04-23 22:45 | 29.27596 | -92.33845 | 39966 ft | 419 kts | 258° |
| 2026-04-23 22:45 | 29.25957 | -92.40249 | 39963 ft | 419 kts | 258° |
| 2026-04-23 22:46 | 29.24432 | -92.46664 | 39948 ft | 414 kts | 267° |
| 2026-04-23 22:46 | 29.24685 | -92.53143 | 39959 ft | 407 kts | 278° |
| 2026-04-23 22:47 | 29.25251 | -92.59596 | 39961 ft | 407 kts | 278° |
| 2026-04-23 22:47 | 29.25784 | -92.66047 | 39965 ft | 407 kts | 278° |
| 2026-04-23 22:48 | 29.26283 | -92.72516 | 39961 ft | 408 kts | 277° |
| 2026-04-23 22:48 | 29.26773 | -92.78987 | 39956 ft | 408 kts | 277° |
| 2026-04-23 22:49 | 29.27255 | -92.85419 | 39955 ft | 408 kts | 277° |
| 2026-04-23 22:49 | 29.27738 | -92.91895 | 39955 ft | 407 kts | 277° |
| 2026-04-23 22:50 | 29.28218 | -92.98350 | 39953 ft | 407 kts | 277° |
| 2026-04-23 22:50 | 29.28702 | -93.04808 | 39957 ft | 406 kts | 278° |
| 2026-04-23 22:51 | 29.29206 | -93.11255 | 39953 ft | 406 kts | 278° |
| 2026-04-23 22:51 | 29.29707 | -93.17692 | 39950 ft | 405 kts | 278° |
| 2026-04-23 22:52 | 29.30203 | -93.24125 | 39945 ft | 405 kts | 278° |
| 2026-04-23 22:52 | 29.30694 | -93.30545 | 39954 ft | 404 kts | 278° |
| 2026-04-23 22:53 | 29.31180 | -93.36949 | 39955 ft | 403 kts | 278° |
| 2026-04-23 22:53 | 29.31659 | -93.43301 | 39786 ft | 405 kts | 277° |
| 2026-04-23 22:53 | 29.31902 | -93.46531 | 39281 ft | 407 kts | 277° |
| 2026-04-23 22:54 | 29.32143 | -93.49761 | 38648 ft | 406 kts | 278° |
| 2026-04-23 22:54 | 29.32383 | -93.52984 | 38023 ft | 405 kts | 277° |
| 2026-04-23 22:54 | 29.32620 | -93.56197 | 37365 ft | 404 kts | 278° |
| 2026-04-23 22:54 | 29.32858 | -93.59404 | 36686 ft | 403 kts | 278° |
| 2026-04-23 22:55 | 29.33095 | -93.62606 | 35972 ft | 403 kts | 278° |
| 2026-04-23 22:55 | 29.33331 | -93.65811 | 35168 ft | 404 kts | 278° |
| 2026-04-23 22:55 | 29.33567 | -93.69023 | 34348 ft | 405 kts | 278° |
| 2026-04-23 22:55 | 29.33802 | -93.72246 | 33494 ft | 406 kts | 278° |
| 2026-04-23 22:56 | 29.34038 | -93.75484 | 32614 ft | 408 kts | 278° |
| 2026-04-23 22:56 | 29.34272 | -93.78707 | 32047 ft | 403 kts | 278° |
| 2026-04-23 22:56 | 29.34504 | -93.81903 | 31345 ft | 401 kts | 278° |
| 2026-04-23 22:56 | 29.34733 | -93.85076 | 30735 ft | 398 kts | 277° |
| 2026-04-23 22:57 | 29.34956 | -93.88182 | 30124 ft | 394 kts | 277° |
| 2026-04-23 22:57 | 29.35159 | -93.91308 | 29512 ft | 392 kts | 276° |
| 2026-04-23 22:57 | 29.35333 | -93.94448 | 28878 ft | 388 kts | 276° |
| 2026-04-23 22:57 | 29.35492 | -93.97485 | 28258 ft | 385 kts | 276° |
| 2026-04-23 22:58 | 29.35652 | -94.00545 | 27630 ft | 383 kts | 276° |
| 2026-04-23 22:58 | 29.35812 | -94.03572 | 27005 ft | 379 kts | 276° |
| 2026-04-23 22:58 | 29.35974 | -94.06580 | 26384 ft | 377 kts | 276° |
| 2026-04-23 22:58 | 29.36134 | -94.09568 | 25754 ft | 374 kts | 276° |
| 2026-04-23 22:59 | 29.36294 | -94.12539 | 25131 ft | 372 kts | 276° |
| 2026-04-23 22:59 | 29.36453 | -94.15487 | 24509 ft | 369 kts | 276° |
| 2026-04-23 22:59 | 29.36611 | -94.18417 | 23889 ft | 367 kts | 275° |
| 2026-04-23 22:59 | 29.36767 | -94.21331 | 23260 ft | 365 kts | 275° |
| 2026-04-23 23:00 | 29.36921 | -94.24224 | 22670 ft | 363 kts | 275° |
| 2026-04-23 23:00 | 29.37094 | -94.27099 | 22035 ft | 360 kts | 276° |
| 2026-04-23 23:00 | 29.37282 | -94.29958 | 21418 ft | 358 kts | 276° |
| 2026-04-23 23:00 | 29.37467 | -94.32789 | 20806 ft | 356 kts | 276° |
| 2026-04-23 23:01 | 29.37649 | -94.35609 | 20213 ft | 353 kts | 276° |
| 2026-04-23 23:01 | 29.37842 | -94.38405 | 19628 ft | 351 kts | 277° |
| 2026-04-23 23:01 | 29.38116 | -94.41192 | 19049 ft | 351 kts | 278° |
| 2026-04-23 23:01 | 29.38423 | -94.43977 | 18490 ft | 352 kts | 279° |
| 2026-04-23 23:02 | 29.38732 | -94.46757 | 17917 ft | 350 kts | 279° |
| 2026-04-23 23:02 | 29.39031 | -94.49511 | 17425 ft | 345 kts | 278° |
| 2026-04-23 23:02 | 29.39321 | -94.52235 | 16870 ft | 343 kts | 278° |
| 2026-04-23 23:02 | 29.39601 | -94.54903 | 16331 ft | 341 kts | 278° |
| 2026-04-23 23:03 | 29.39881 | -94.57590 | 15782 ft | 338 kts | 278° |
| 2026-04-23 23:03 | 29.40158 | -94.60269 | 15235 ft | 336 kts | 278° |
| 2026-04-23 23:03 | 29.40432 | -94.62926 | 14690 ft | 335 kts | 278° |
| 2026-04-23 23:03 | 29.40710 | -94.65568 | 14149 ft | 333 kts | 279° |
| 2026-04-23 23:04 | 29.41345 | -94.68101 | 13676 ft | 328 kts | 292° |
| 2026-04-23 23:04 | 29.42237 | -94.70485 | 13236 ft | 325 kts | 294° |
| 2026-04-23 23:04 | 29.43150 | -94.72864 | 12792 ft | 326 kts | 294° |
| 2026-04-23 23:04 | 29.44062 | -94.75260 | 12349 ft | 328 kts | 293° |
| 2026-04-23 23:05 | 29.44966 | -94.77667 | 11899 ft | 329 kts | 293° |
| 2026-04-23 23:05 | 29.45863 | -94.80081 | 11433 ft | 329 kts | 293° |
| 2026-04-23 23:05 | 29.46741 | -94.82459 | 10979 ft | 325 kts | 292° |
| 2026-04-23 23:05 | 29.47622 | -94.84855 | 10536 ft | 319 kts | 292° |
| 2026-04-23 23:06 | 29.48466 | -94.87149 | 10109 ft | 314 kts | 292° |
| 2026-04-23 23:06 | 29.49283 | -94.89383 | 9963 ft | 290 kts | 291° |
| 2026-04-23 23:06 | 29.50039 | -94.91473 | 9629 ft | 281 kts | 291° |
| 2026-04-23 23:06 | 29.50778 | -94.93518 | 9400 ft | 276 kts | 291° |
| 2026-04-23 23:07 | 29.51514 | -94.95560 | 9148 ft | 278 kts | 291° |
| 2026-04-23 23:07 | 29.52258 | -94.97623 | 8905 ft | 281 kts | 291° |
| 2026-04-23 23:07 | 29.53008 | -94.99705 | 8667 ft | 283 kts | 291° |
| 2026-04-23 23:07 | 29.53760 | -95.01788 | 8419 ft | 282 kts | 291° |
| 2026-04-23 23:08 | 29.54510 | -95.03868 | 8179 ft | 282 kts | 291° |
| 2026-04-23 23:08 | 29.55259 | -95.05938 | 7935 ft | 281 kts | 290° |
| 2026-04-23 23:08 | 29.56002 | -95.08007 | 7708 ft | 279 kts | 290° |
| 2026-04-23 23:08 | 29.56743 | -95.10065 | 7463 ft | 278 kts | 290° |
| 2026-04-23 23:09 | 29.57482 | -95.12117 | 7226 ft | 277 kts | 290° |
| 2026-04-23 23:09 | 29.58199 | -95.14143 | 7003 ft | 274 kts | 287° |
| 2026-04-23 23:09 | 29.58675 | -95.16234 | 6865 ft | 268 kts | 279° |
| 2026-04-23 23:09 | 29.59019 | -95.18327 | 6729 ft | 267 kts | 278° |
| 2026-04-23 23:10 | 29.59242 | -95.19748 | 6649 ft | 268 kts | 278° |
| 2026-04-23 23:10 | 29.59703 | -95.22557 | 6468 ft | 272 kts | 278° |
| 2026-04-23 23:10 | 29.59950 | -95.24001 | 6384 ft | 272 kts | 279° |
| 2026-04-23 23:10 | 29.60318 | -95.26093 | 6238 ft | 262 kts | 279° |
| 2026-04-23 23:11 | 29.60669 | -95.28083 | 6102 ft | 252 kts | 279° |
| 2026-04-23 23:11 | 29.61010 | -95.30012 | 6004 ft | 241 kts | 279° |
| 2026-04-23 23:11 | 29.61374 | -95.31873 | 6000 ft | 236 kts | 281° |
| 2026-04-23 23:11 | 29.61752 | -95.33689 | 5806 ft | 233 kts | 281° |
| 2026-04-23 23:12 | 29.62131 | -95.35509 | 5482 ft | 235 kts | 281° |
| 2026-04-23 23:12 | 29.62510 | -95.37339 | 5160 ft | 235 kts | 281° |
| 2026-04-23 23:12 | 29.63122 | -95.39081 | 4847 ft | 239 kts | 307° |
| 2026-04-23 23:12 | 29.64259 | -95.40473 | 4586 ft | 238 kts | 312° |
| 2026-04-23 23:13 | 29.65422 | -95.41847 | 4284 ft | 239 kts | 312° |
| 2026-04-23 23:13 | 29.66565 | -95.43231 | 4002 ft | 238 kts | 310° |
| 2026-04-23 23:13 | 29.67664 | -95.44655 | 3724 ft | 238 kts | 309° |
| 2026-04-23 23:13 | 29.68739 | -95.46069 | 3461 ft | 237 kts | 309° |
| 2026-04-23 23:14 | 29.69820 | -95.47501 | 3193 ft | 237 kts | 309° |
| 2026-04-23 23:14 | 29.70903 | -95.48929 | 2912 ft | 237 kts | 310° |
| 2026-04-23 23:14 | 29.71988 | -95.50345 | 2609 ft | 236 kts | 309° |
| 2026-04-23 23:14 | 29.73159 | -95.51658 | 2331 ft | 236 kts | 329° |
| 2026-04-23 23:15 | 29.74700 | -95.52145 | 2204 ft | 226 kts | 5° |
| 2026-04-23 23:15 | 29.76121 | -95.51610 | 2091 ft | 210 kts | 41° |
| 2026-04-23 23:15 | 29.77051 | -95.50363 | 2049 ft | 206 kts | 60° |
| 2026-04-23 23:15 | 29.77833 | -95.48969 | 2005 ft | 209 kts | 62° |
| 2026-04-23 23:16 | 29.78603 | -95.47574 | 1991 ft | 205 kts | 62° |
| 2026-04-23 23:16 | 29.79333 | -95.46176 | 1990 ft | 203 kts | 71° |
| 2026-04-23 23:16 | 29.79431 | -95.44612 | 1984 ft | 197 kts | 114° |
| 2026-04-23 23:16 | 29.78578 | -95.43522 | 1989 ft | 178 kts | 155° |
| 2026-04-23 23:17 | 29.77539 | -95.42852 | 1971 ft | 168 kts | 137° |
| 2026-04-23 23:17 | 29.76702 | -95.41970 | 1982 ft | 162 kts | 139° |
| 2026-04-23 23:17 | 29.75854 | -95.41147 | 1989 ft | 160 kts | 141° |
| 2026-04-23 23:17 | 29.75038 | -95.40332 | 1980 ft | 151 kts | 138° |
| 2026-04-23 23:18 | 29.74292 | -95.39499 | 1992 ft | 148 kts | 136° |
| 2026-04-23 23:18 | 29.73567 | -95.38651 | 1984 ft | 148 kts | 136° |
| 2026-04-23 23:18 | 29.72852 | -95.37803 | 1988 ft | 147 kts | 135° |
| 2026-04-23 23:18 | 29.72142 | -95.36960 | 1988 ft | 146 kts | 136° |
| 2026-04-23 23:19 | 29.71428 | -95.36108 | 1878 ft | 149 kts | 135° |
| 2026-04-23 23:19 | 29.70716 | -95.35255 | 1688 ft | 146 kts | 136° |
| 2026-04-23 23:19 | 29.70011 | -95.34416 | 1515 ft | 146 kts | 135° |
| 2026-04-23 23:19 | 29.69298 | -95.33568 | 1318 ft | 148 kts | 135° |
| 2026-04-23 23:20 | 29.68589 | -95.32721 | 1148 ft | 142 kts | 135° |
| 2026-04-23 23:20 | 29.67930 | -95.31935 | 921 ft | 130 kts | 135° |
| 2026-04-23 23:20 | 29.67319 | -95.31206 | 755 ft | 125 kts | 135° |
| 2026-04-23 23:20 | 29.66715 | -95.30487 | 595 ft | 125 kts | 135° |
| 2026-04-23 23:21 | 29.66126 | -95.29777 | 431 ft | 123 kts | 141° |
| 2026-04-23 23:21 | 29.65519 | -95.29092 | 250 ft | 123 kts | 133° |
| 2026-04-23 23:21 | 29.64937 | -95.28365 | 92 ft | 124 kts | 135° |
| 2026-04-23 23:21 | 29.64394 | -95.27726 | 51 ft | 91 kts | 133° |
| 2026-04-23 23:22 | 29.64109 | -95.27380 | 51 ft | 30 kts | 134° |
| 2026-04-23 23:22 | 29.63973 | -95.27213 | 51 ft | 28 kts | 126° |
| 2026-04-23 23:22 | 29.63924 | -95.27076 | 51 ft | 13 kts | 99° |
| 2026-04-23 23:22 | 29.63925 | -95.27013 | 51 ft | 0 kts | 91° |
| 2026-04-23 23:23 | 29.63925 | -95.27011 | 51 ft | 1 kts | 91° |
| 2026-04-23 23:23 | 29.63925 | -95.26978 | 51 ft | 8 kts | 91° |
| 2026-04-23 23:23 | 29.63930 | -95.26891 | 51 ft | 14 kts | 59° |
| 2026-04-23 23:24 | 29.64028 | -95.26863 | 51 ft | 17 kts | 1° |
| 2026-04-23 23:24 | 29.64149 | -95.26864 | 51 ft | 17 kts | 345° |
| 2026-04-23 23:24 | 29.64225 | -95.26968 | 51 ft | 17 kts | 308° |
| 2026-04-23 23:24 | 29.64299 | -95.27071 | 51 ft | 16 kts | 311° |
| 2026-04-23 23:25 | 29.64370 | -95.27175 | 51 ft | 17 kts | 302° |
| 2026-04-23 23:25 | 29.64429 | -95.27285 | 51 ft | 16 kts | 311° |
| 2026-04-23 23:25 | 29.64510 | -95.27381 | 51 ft | 17 kts | 316° |
| 2026-04-23 23:25 | 29.64596 | -95.27481 | 51 ft | 18 kts | 318° |
| 2026-04-23 23:26 | 29.64712 | -95.27516 | 51 ft | 17 kts | 359° |
| 2026-04-23 23:26 | 29.64836 | -95.27517 | 51 ft | 20 kts | 358° |
| 2026-04-23 23:26 | 29.64994 | -95.27520 | 51 ft | 24 kts | 359° |
| 2026-04-23 23:26 | 29.65100 | -95.27582 | 51 ft | 17 kts | 278° |
| 2026-04-23 23:27 | 29.65099 | -95.27721 | 51 ft | 19 kts | 268° |
| 2026-04-23 23:27 | 29.65103 | -95.27878 | 51 ft | 20 kts | 287° |
| 2026-04-23 23:27 | 29.65191 | -95.28000 | 51 ft | 20 kts | 316° |
| 2026-04-23 23:27 | 29.65294 | -95.27965 | 51 ft | 10 kts | 47° |
| 2026-04-23 23:28 | 29.65315 | -95.27906 | 51 ft | 8 kts | 110° |
| 2026-04-23 23:28 | 29.65304 | -95.27894 | 51 ft | 1 kts | 152° |
| 2026-04-23 23:28 | 29.65298 | -95.27892 | 51 ft | 2 kts | 156° |
| 2026-04-23 23:28 | 29.65285 | -95.27885 | 51 ft | 1 kts | 157° |
| 2026-04-23 23:29 | 29.65276 | -95.27881 | 51 ft | 1 kts | 157° |
| 2026-04-23 23:29 | 29.65275 | -95.27881 | 50 ft | 0 kts | 157° |